Time;durP1;ratioP1;P1;durP2;ratioP2;P2;SDS_P1;SDS_P2;PMS_P1;PMS_P2;Temp;Humidity;BMP_temperature;BMP_pressure;BME280_temperature;BME280_humidity;BME280_pressure;Samples;Min_cycle;Max_cycle;Signal;HPM_P1;HPM_P2
2023/06/11 00:02:11;;;;;;;6.88;5.80;;;23.40;92.20;;;;;;5054328;28;20029;-88
2023/06/11 00:04:37;;;;;;;8.18;6.75;;;23.40;92.30;;;;;;5056721;28;20033;-88
2023/06/11 00:07:05;;;;;;;11.00;6.75;;;23.50;92.40;;;;;;5054358;28;20058;-88
2023/06/11 00:09:31;;;;;;;6.93;6.38;;;23.40;92.50;;;;;;5053529;28;20053;-88
2023/06/11 00:11:57;;;;;;;7.13;6.43;;;23.50;92.60;;;;;;5054216;28;20032;-87
2023/06/11 00:14:23;;;;;;;10.02;6.47;;;23.40;92.70;;;;;;5053579;28;20024;-87
2023/06/11 00:16:49;;;;;;;11.05;6.80;;;23.40;92.80;;;;;;5054104;28;20485;-87
2023/06/11 00:19:17;;;;;;;7.25;6.43;;;23.30;93.00;;;;;;5054271;28;20074;-87
2023/06/11 00:21:43;;;;;;;7.63;6.63;;;23.30;93.00;;;;;;5052748;28;20078;-88
2023/06/11 00:24:13;;;;;;;7.85;7.15;;;23.30;93.10;;;;;;5054051;28;20091;-87
2023/06/11 00:26:40;;;;;;;13.02;7.10;;;23.20;93.20;;;;;;5052882;28;20104;-87
2023/06/11 00:29:06;;;;;;;16.02;7.30;;;23.30;93.30;;;;;;5053874;28;20389;-88
2023/06/11 00:31:32;;;;;;;7.55;6.63;;;23.20;93.30;;;;;;5053767;28;20025;-88
2023/06/11 00:33:59;;;;;;;10.20;6.55;;;23.30;93.40;;;;;;5052409;28;20021;-88
2023/06/11 00:36:26;;;;;;;8.05;7.18;;;23.20;93.50;;;;;;5053856;28;20045;-88
2023/06/11 00:38:55;;;;;;;7.65;6.93;;;23.20;93.60;;;;;;5053044;28;20483;-88
2023/06/11 00:41:21;;;;;;;7.25;6.65;;;23.20;93.60;;;;;;5052537;28;20055;-88
2023/06/11 00:43:52;;;;;;;7.78;6.75;;;23.00;93.70;;;;;;5052339;28;20049;-88
2023/06/11 00:46:21;;;;;;;9.68;7.20;;;23.10;93.70;;;;;;5051983;28;20055;-88
2023/06/11 00:48:47;;;;;;;10.13;7.05;;;23.20;93.80;;;;;;5051035;28;20036;-88
2023/06/11 00:51:20;;;;;;;8.25;7.03;;;24.10;94.10;;;;;;5053473;28;20044;-88
2023/06/11 00:53:47;;;;;;;8.40;7.50;;;23.00;93.90;;;;;;5053155;28;20036;-88
2023/06/11 00:56:17;;;;;;;8.55;7.65;;;23.50;94.00;;;;;;5053171;28;20021;-88
2023/06/11 00:58:45;;;;;;;8.70;7.10;;;23.10;94.00;;;;;;5052262;28;20021;-87
2023/06/11 01:01:15;;;;;;;8.07;7.03;;;23.00;94.10;;;;;;5052062;28;20495;-86
2023/06/11 01:03:43;;;;;;;7.10;6.30;;;23.50;94.30;;;;;;5051240;28;20029;-86
2023/06/11 01:06:17;;;;;;;9.57;7.93;;;23.00;94.30;;;;;;5053348;28;20031;-87
2023/06/11 01:08:44;;;;;;;9.52;7.40;;;23.40;94.40;;;;;;5051264;28;20397;-88
2023/06/11 01:11:22;;;;;;;10.85;7.93;;;22.90;94.40;;;;;;5052565;28;20028;-87
2023/06/11 01:13:48;;;;;;;10.43;7.80;;;22.90;94.40;;;;;;5052321;28;20044;-87
2023/06/11 01:16:45;;;;;;;8.00;7.13;;;22.80;94.40;;;;;;5053381;28;20037;-87
2023/06/11 01:19:52;;;;;;;11.45;7.25;;;22.80;94.50;;;;;;5053790;28;20059;-87
2023/06/11 01:23:09;;;;;;;12.93;8.02;;;22.80;94.60;;;;;;5053679;28;20048;-87
2023/06/11 01:26:07;;;;;;;8.73;7.80;;;22.90;94.70;;;;;;5051901;28;20029;-87
2023/06/11 01:28:36;;;;;;;8.77;7.13;;;22.80;94.70;;;;;;5049898;28;20041;-87
2023/06/11 01:31:08;;;;;;;12.00;8.50;;;22.80;94.80;;;;;;5050565;28;20028;-87
2023/06/11 01:33:35;;;;;;;8.82;8.00;;;22.80;94.90;;;;;;5051639;28;20491;-87
2023/06/11 01:36:01;;;;;;;10.18;7.80;;;23.10;95.00;;;;;;5050369;28;20087;-88
2023/06/11 01:38:30;;;;;;;8.57;7.70;;;22.70;95.00;;;;;;5049863;28;20021;-87
2023/06/11 01:40:58;;;;;;;8.15;7.30;;;22.70;95.10;;;;;;5051391;28;20017;-87
2023/06/11 01:43:25;;;;;;;13.27;7.90;;;22.60;95.20;;;;;;5051720;28;20021;-87
2023/06/11 01:45:51;;;;;;;8.77;7.75;;;22.70;95.30;;;;;;5051682;28;20108;-87
2023/06/11 01:48:17;;;;;;;10.30;8.10;;;22.70;95.30;;;;;;5052720;28;20120;-87
2023/06/11 01:50:44;;;;;;;8.10;7.28;;;22.80;95.40;;;;;;5052064;28;20536;-86
2023/06/11 01:53:22;;;;;;;7.82;7.05;;;22.80;95.50;;;;;;5052719;28;20060;-86
2023/06/11 01:55:47;;;;;;;9.20;7.28;;;22.60;95.50;;;;;;5053131;28;20025;-88
2023/06/11 01:58:13;;;;;;;16.25;8.50;;;23.40;95.80;;;;;;5051702;28;20029;-87
2023/06/11 02:00:51;;;;;;;10.13;7.57;;;22.80;95.70;;;;;;5054910;28;20021;-86
2023/06/11 02:03:17;;;;;;;9.70;7.32;;;22.80;95.70;;;;;;5051948;28;20040;-86
2023/06/11 02:05:43;;;;;;;8.23;7.53;;;23.50;96.00;;;;;;5051688;28;20025;-86
2023/06/11 02:08:19;;;;;;;10.15;8.05;;;22.90;95.80;;;;;;5052277;28;20036;-87
2023/06/11 02:10:45;;;;;;;9.43;8.55;;;22.70;95.90;;;;;;5052288;28;20029;-87
2023/06/11 02:13:10;;;;;;;10.98;8.32;;;22.60;96.30;;;;;;5050418;28;20445;-86
2023/06/11 02:15:48;;;;;;;8.82;8.00;;;23.00;96.20;;;;;;5052040;28;20075;-87
2023/06/11 02:18:14;;;;;;;10.00;8.68;;;22.50;96.30;;;;;;5052091;28;20025;-87
2023/06/11 02:20:39;;;;;;;9.02;8.02;;;22.80;96.40;;;;;;5051570;28;20346;-86
2023/06/11 02:23:05;;;;;;;12.45;8.43;;;22.40;96.40;;;;;;5051185;28;20033;-87
2023/06/11 02:25:30;;;;;;;9.25;8.35;;;22.40;96.50;;;;;;5051734;28;20172;-87
2023/06/11 02:28:08;;;;;;;9.85;8.07;;;22.30;96.70;;;;;;5050463;28;20068;-86
2023/06/11 02:30:33;;;;;;;11.00;8.80;;;22.30;96.90;;;;;;5052279;28;20017;-87
2023/06/11 02:33:08;;;;;;;10.88;8.52;;;22.30;97.10;;;;;;5051595;28;20381;-87
2023/06/11 02:35:34;;;;;;;10.02;8.50;;;22.00;97.30;;;;;;5048834;28;20498;-86
2023/06/11 02:37:59;;;;;;;8.93;8.00;;;22.70;97.70;;;;;;5051213;28;20129;-87
2023/06/11 02:40:34;;;;;;;8.93;8.10;;;22.70;97.80;;;;;;5049440;28;20026;-86
2023/06/11 02:43:00;;;;;;;10.10;8.55;;;22.00;97.60;;;;;;5032554;28;20497;-87
2023/06/11 02:45:25;;;;;;;13.93;8.32;;;22.10;97.60;;;;;;5031483;28;20032;-86
2023/06/11 02:47:51;;;;;;;9.23;8.43;;;22.60;97.80;;;;;;5030625;28;20022;-86
2023/06/11 02:50:16;;;;;;;9.65;8.77;;;22.20;97.60;;;;;;5031858;28;20072;-86
2023/06/11 02:52:42;;;;;;;15.50;9.60;;;22.10;97.50;;;;;;5031698;28;20036;-87
2023/06/11 02:55:08;;;;;;;9.30;8.38;;;22.10;97.60;;;;;;5033392;28;20108;-86
2023/06/11 02:57:33;;;;;;;10.07;8.43;;;22.10;97.50;;;;;;5030615;28;20151;-86
2023/06/11 02:59:59;;;;;;;12.80;8.90;;;22.00;97.50;;;;;;5031469;28;20474;-86
2023/06/11 03:02:24;;;;;;;13.13;9.20;;;22.10;97.50;;;;;;5030394;28;20029;-86
2023/06/11 03:04:50;;;;;;;15.43;8.68;;;22.20;97.50;;;;;;5030795;28;20529;-86
2023/06/11 03:07:15;;;;;;;11.95;9.35;;;22.20;97.50;;;;;;5031536;28;20477;-86
2023/06/11 03:09:41;;;;;;;10.65;8.80;;;22.30;97.50;;;;;;5030926;28;20104;-86
2023/06/11 03:12:07;;;;;;;15.18;8.45;;;22.10;97.50;;;;;;5031528;28;20021;-86
2023/06/11 03:14:32;;;;;;;10.00;8.80;;;22.20;97.60;;;;;;5031100;28;20036;-86
2023/06/11 03:16:58;;;;;;;12.27;8.75;;;22.60;97.60;;;;;;5030877;28;20384;-86
2023/06/11 03:19:23;;;;;;;9.75;8.75;;;22.40;97.60;;;;;;5030839;28;20029;-86
2023/06/11 03:21:49;;;;;;;12.05;9.38;;;22.90;97.70;;;;;;5030243;28;20032;-86
2023/06/11 03:24:15;;;;;;;10.40;9.32;;;22.20;97.60;;;;;;5030283;28;20037;-86
2023/06/11 03:26:40;;;;;;;15.50;9.85;;;22.00;97.70;;;;;;5030921;28;20037;-86
2023/06/11 03:29:06;;;;;;;10.95;9.10;;;22.50;98.00;;;;;;5030799;28;20051;-86
2023/06/11 03:31:31;;;;;;;9.07;8.38;;;22.20;97.90;;;;;;5031257;28;20072;-86
2023/06/11 03:33:57;;;;;;;17.90;9.68;;;22.10;98.00;;;;;;5033006;28;20025;-86
2023/06/11 03:36:23;;;;;;;11.13;10.07;;;22.20;98.10;;;;;;5033958;28;20053;-86
2023/06/11 03:38:49;;;;;;;11.45;9.68;;;22.00;98.20;;;;;;5035159;28;20029;-87
2023/06/11 03:41:15;;;;;;;11.30;10.13;;;22.20;98.30;;;;;;5035270;28;20385;-87
2023/06/11 03:43:40;;;;;;;11.80;10.32;;;22.00;98.40;;;;;;5035230;28;20144;-87
2023/06/11 03:46:06;;;;;;;11.27;10.13;;;22.10;98.50;;;;;;5035124;28;20039;-86
2023/06/11 03:48:32;;;;;;;11.70;10.50;;;21.90;98.60;;;;;;5034907;28;20033;-87
2023/06/11 03:50:57;;;;;;;10.65;9.73;;;21.90;98.70;;;;;;5035493;28;20470;-87
2023/06/11 03:53:24;;;;;;;10.40;9.52;;;22.00;98.70;;;;;;5035478;28;20032;-86
2023/06/11 03:55:49;;;;;;;12.00;10.05;;;21.80;98.80;;;;;;5037779;28;20025;-86
2023/06/11 03:58:15;;;;;;;11.57;9.63;;;22.00;99.00;;;;;;5053692;28;20021;-87
2023/06/11 04:00:40;;;;;;;11.05;10.15;;;21.80;98.90;;;;;;5054274;28;20017;-86
2023/06/11 04:03:06;;;;;;;11.88;9.77;;;21.90;99.00;;;;;;5054583;28;20029;-87
2023/06/11 04:05:38;;;;;;;14.25;10.65;;;22.40;99.20;;;;;;5057589;28;20028;-87
2023/06/11 04:08:04;;;;;;;11.55;10.57;;;21.80;99.10;;;;;;5054910;28;20079;-86
2023/06/11 04:10:30;;;;;;;14.52;10.60;;;22.00;99.30;;;;;;5053989;28;20060;-86
2023/06/11 04:12:55;;;;;;;14.70;10.95;;;22.00;99.40;;;;;;5052672;28;20473;-87
2023/06/11 04:15:21;;;;;;;11.57;10.48;;;21.80;99.50;;;;;;5049540;28;20036;-88
2023/06/11 04:17:47;;;;;;;13.35;10.55;;;21.70;99.60;;;;;;5033908;28;20466;-85
2023/06/11 04:20:14;;;;;;;12.20;10.57;;;21.70;99.60;;;;;;5033798;28;20025;-84
2023/06/11 04:22:40;;;;;;;11.48;10.40;;;21.70;99.70;;;;;;5033834;28;20565;-87
2023/06/11 04:25:06;;;;;;;16.92;10.10;;;22.10;99.90;;;;;;5033782;28;20108;-87
2023/06/11 04:27:33;;;;;;;13.05;11.73;;;21.70;99.90;;;;;;5033187;28;20107;-87
2023/06/11 04:30:00;;;;;;;12.02;10.80;;;22.00;99.90;;;;;;5033179;28;20037;-87
2023/06/11 04:32:26;;;;;;;12.45;10.80;;;21.80;99.90;;;;;;5033473;28;20032;-88
2023/06/11 04:34:53;;;;;;;13.57;11.50;;;21.70;99.90;;;;;;5032970;28;20029;-87
2023/06/11 04:37:19;;;;;;;11.98;10.70;;;21.60;99.90;;;;;;5034092;28;20052;-88
2023/06/11 04:39:46;;;;;;;12.23;10.73;;;21.60;99.90;;;;;;5032073;28;20021;-88
2023/06/11 04:42:14;;;;;;;12.35;11.27;;;21.50;99.90;;;;;;5036207;28;20026;-86
2023/06/11 04:44:40;;;;;;;13.30;10.93;;;21.60;99.90;;;;;;5036176;28;20036;-86
2023/06/11 04:47:06;;;;;;;13.95;11.15;;;21.50;99.90;;;;;;5032811;28;20105;-87
2023/06/11 04:49:32;;;;;;;11.68;10.68;;;21.50;99.90;;;;;;5034073;28;20104;-87
2023/06/11 04:51:58;;;;;;;13.70;10.95;;;21.50;99.90;;;;;;5033750;28;20534;-87
2023/06/11 04:54:24;;;;;;;12.10;10.70;;;21.60;99.90;;;;;;5032856;28;20099;-87
2023/06/11 04:56:49;;;;;;;12.73;11.63;;;21.60;99.90;;;;;;5033295;28;20466;-87
2023/06/11 04:59:15;;;;;;;13.10;11.75;;;21.80;99.90;;;;;;5033565;28;20047;-87
2023/06/11 05:01:46;;;;;;;12.88;10.77;;;21.60;99.90;;;;;;5032185;28;20367;-87
2023/06/11 05:04:14;;;;;;;16.05;11.20;;;21.70;99.90;;;;;;5025723;28;20030;-87
2023/06/11 05:06:44;;;;;;;14.05;11.57;;;21.70;99.90;;;;;;5021660;28;20556;-88
2023/06/11 05:09:14;;;;;;;12.48;11.18;;;21.70;99.90;;;;;;5022713;28;20047;-89
2023/06/11 05:11:43;;;;;;;11.98;10.70;;;21.70;99.90;;;;;;5023895;28;20075;-89
2023/06/11 05:14:10;;;;;;;12.63;11.45;;;21.70;99.90;;;;;;5024601;28;20069;-88
2023/06/11 05:16:36;;;;;;;12.57;11.25;;;21.70;99.90;;;;;;5022339;28;20030;-87
2023/06/11 05:19:02;;;;;;;12.07;11.07;;;21.70;99.90;;;;;;5022098;28;20533;-88
2023/06/11 05:21:28;;;;;;;11.52;10.32;;;21.80;99.90;;;;;;5022323;28;20037;-88
2023/06/11 05:23:54;;;;;;;12.52;10.80;;;21.90;99.90;;;;;;5023268;28;20034;-87
2023/06/11 05:26:32;;;;;;;11.10;9.70;;;21.90;99.90;;;;;;5022927;28;20040;-88
2023/06/11 05:28:57;;;;;;;11.35;10.18;;;21.80;99.90;;;;;;5030150;28;20127;-87
2023/06/11 05:31:23;;;;;;;11.85;10.65;;;22.40;99.90;;;;;;5023131;28;20052;-89
2023/06/11 05:33:50;;;;;;;15.02;11.45;;;22.10;99.90;;;;;;5027019;28;20018;-91
2023/06/11 05:36:16;;;;;;;11.50;10.40;;;21.90;99.90;;;;;;5040190;28;20093;-90
2023/06/11 05:38:55;;;;;;;12.55;10.77;;;22.00;99.90;;;;;;5044178;28;20473;-91
2023/06/11 05:41:35;;;;;;;11.63;10.50;;;22.00;99.90;;;;;;5041847;28;20389;-90
2023/06/11 05:44:17;;;;;;;12.30;10.75;;;22.00;99.90;;;;;;5035495;28;20183;-90
2023/06/11 05:46:57;;;;;;;12.15;10.85;;;22.00;99.90;;;;;;5043105;28;20021;-90
2023/06/11 05:49:42;;;;;;;12.57;10.68;;;21.50;99.90;;;;;;5044186;28;20033;-91
2023/06/11 05:52:14;;;;;;;12.18;11.18;;;22.40;99.90;;;;;;5028470;28;20034;-91
2023/06/11 05:54:40;;;;;;;12.13;10.80;;;22.00;99.90;;;;;;5048133;28;20025;-89
2023/06/11 05:57:24;;;;;;;11.15;10.35;;;22.70;99.90;;;;;;5036549;28;20488;-91
2023/06/11 05:59:55;;;;;;;13.80;10.63;;;22.10;99.90;;;;;;4987115;28;20053;-90
2023/06/11 06:02:44;;;;;;;12.32;11.20;;;22.30;99.90;;;;;;5035900;28;20033;-91
2023/06/11 06:05:22;;;;;;;12.05;11.00;;;21.50;99.90;;;;;;4954979;28;20522;-91
2023/06/11 06:08:06;;;;;;;13.00;11.23;;;22.20;99.90;;;;;;5039576;28;20033;-90
2023/06/11 06:11:23;;;;;;;11.43;10.52;;;22.10;99.90;;;;;;5052841;22;20053;-92
2023/06/11 06:16:33;;;;;;;12.00;10.50;;;22.30;99.90;;;;;;5035290;28;20401;-92
2023/06/11 06:18:59;;;;;;;11.23;10.32;;;23.30;99.90;;;;;;5041511;28;20037;-92
2023/06/11 06:21:24;;;;;;;12.45;10.30;;;23.10;99.90;;;;;;5041252;28;20514;-90
2023/06/11 06:24:10;;;;;;;14.43;12.00;;;22.50;99.90;;;;;;5030759;28;20156;-91
2023/06/11 06:26:37;;;;;;;12.75;11.65;;;22.40;99.90;;;;;;5032412;28;20026;-89
2023/06/11 06:29:22;;;;;;;12.52;11.23;;;22.90;99.90;;;;;;4998508;28;20049;-91
2023/06/11 06:31:48;;;;;;;12.35;11.05;;;22.40;99.90;;;;;;5047149;28;20038;-92
2023/06/11 06:34:31;;;;;;;11.48;10.32;;;23.30;99.90;;;;;;5121561;23;20053;-91
2023/06/11 06:36:57;;;;;;;11.77;10.80;;;22.50;99.90;;;;;;5033714;28;20033;-91
2023/06/11 06:39:44;;;;;;;11.75;10.55;;;22.90;99.90;;;;;;5032555;28;20030;-90
2023/06/11 06:42:10;;;;;;;13.25;10.23;;;22.00;99.90;;;;;;5033203;28;20025;-90
2023/06/11 06:44:36;;;;;;;12.77;10.45;;;23.30;99.90;;;;;;5033568;28;20481;-93
2023/06/11 06:47:20;;;;;;;12.27;11.13;;;22.70;99.90;;;;;;5032452;28;20021;-89
2023/06/11 06:49:45;;;;;;;11.10;10.10;;;22.40;99.90;;;;;;5033399;28;20449;-92
2023/06/11 06:52:11;;;;;;;10.95;10.00;;;23.50;99.90;;;;;;5050113;28;20038;-92
2023/06/11 06:54:53;;;;;;;12.18;10.35;;;22.70;99.90;;;;;;5033078;28;20392;-91
2023/06/11 06:57:46;;;;;;;11.48;9.70;;;22.70;99.90;;;;;;5033165;28;20066;-89
2023/06/11 07:00:12;;;;;;;13.38;11.73;;;22.80;99.90;;;;;;4977163;28;20042;-87
2023/06/11 07:02:37;;;;;;;11.07;10.05;;;22.90;99.90;;;;;;5031845;28;20496;-90
2023/06/11 07:05:03;;;;;;;11.52;10.18;;;23.00;99.90;;;;;;5029336;28;20063;-86
2023/06/11 07:07:29;;;;;;;11.27;10.27;;;22.90;99.90;;;;;;5020002;28;20481;-89
2023/06/11 07:09:54;;;;;;;12.02;10.85;;;23.00;99.90;;;;;;5021952;28;20029;-87
2023/06/11 07:12:21;;;;;;;10.35;9.55;;;23.00;99.90;;;;;;5025086;28;20045;-87
2023/06/11 07:14:46;;;;;;;11.05;9.88;;;23.30;99.90;;;;;;5025030;28;20026;-86
2023/06/11 07:17:12;;;;;;;11.60;10.52;;;23.20;99.90;;;;;;5023926;28;20022;-87
2023/06/11 07:19:37;;;;;;;12.13;10.05;;;23.10;99.90;;;;;;5025925;28;20082;-87
2023/06/11 07:22:03;;;;;;;10.90;9.88;;;23.40;99.90;;;;;;5021956;28;20473;-87
2023/06/11 07:24:29;;;;;;;11.05;10.15;;;23.20;99.90;;;;;;5027085;28;20069;-86
2023/06/11 07:26:55;;;;;;;11.45;10.43;;;23.20;99.90;;;;;;5029481;28;20026;-86
2023/06/11 07:29:21;;;;;;;11.15;10.15;;;23.30;99.90;;;;;;5030862;28;20535;-86
2023/06/11 07:31:46;;;;;;;14.63;11.43;;;23.30;99.90;;;;;;5028389;28;20477;-84
2023/06/11 07:34:14;;;;;;;10.88;9.98;;;23.40;99.90;;;;;;5029872;28;20497;-83
2023/06/11 07:36:40;;;;;;;12.35;10.77;;;23.50;99.90;;;;;;5034485;28;20033;-86
2023/06/11 07:39:05;;;;;;;13.00;11.15;;;23.40;99.90;;;;;;5034702;28;20021;-85
2023/06/11 07:41:31;;;;;;;11.50;10.45;;;23.40;99.90;;;;;;5035132;28;20470;-86
2023/06/11 07:43:56;;;;;;;12.02;10.82;;;23.50;99.90;;;;;;5034025;28;20159;-85
2023/06/11 07:46:22;;;;;;;10.63;9.77;;;23.50;99.90;;;;;;5034886;28;20481;-85
2023/06/11 07:48:48;;;;;;;12.20;11.13;;;23.50;99.90;;;;;;5034839;28;20124;-85
2023/06/11 07:51:14;;;;;;;11.95;10.77;;;23.60;99.90;;;;;;5031171;28;20026;-85
2023/06/11 07:53:40;;;;;;;12.38;11.05;;;24.00;99.90;;;;;;5024293;28;20029;-84
2023/06/11 07:56:06;;;;;;;12.25;10.98;;;24.30;99.90;;;;;;5014895;28;20029;-85
2023/06/11 07:58:31;;;;;;;12.13;11.10;;;23.70;99.90;;;;;;5014730;28;20022;-84
2023/06/11 08:00:57;;;;;;;11.90;10.80;;;23.90;99.90;;;;;;5014694;28;20059;-86
2023/06/11 08:03:23;;;;;;;11.57;10.45;;;23.80;99.90;;;;;;5014969;28;20105;-83
2023/06/11 08:05:48;;;;;;;11.02;10.07;;;23.80;99.90;;;;;;5014097;28;20347;-83
2023/06/11 08:08:14;;;;;;;12.90;9.88;;;23.90;99.90;;;;;;5015368;28;20037;-84
2023/06/11 08:10:40;;;;;;;10.88;9.82;;;23.90;99.90;;;;;;5015737;28;20018;-85
2023/06/11 08:13:05;;;;;;;11.65;10.57;;;24.00;99.90;;;;;;5013986;28;20111;-83
2023/06/11 08:15:31;;;;;;;11.10;9.82;;;24.00;99.90;;;;;;5019593;28;20540;-83
2023/06/11 08:17:56;;;;;;;12.13;10.57;;;24.00;99.90;;;;;;5014195;28;20448;-86
2023/06/11 08:20:22;;;;;;;11.23;9.93;;;24.10;99.90;;;;;;5014316;28;20101;-84
2023/06/11 08:22:48;;;;;;;10.13;9.30;;;24.00;99.90;;;;;;5022209;28;20320;-84
2023/06/11 08:25:13;;;;;;;11.13;10.23;;;24.20;99.90;;;;;;5033451;28;20140;-84
2023/06/11 08:27:39;;;;;;;14.02;11.05;;;24.10;99.90;;;;;;5034060;28;20038;-84
2023/06/11 08:30:06;;;;;;;11.77;10.80;;;24.20;99.90;;;;;;5033882;28;20025;-83
2023/06/11 08:32:32;;;;;;;11.50;10.23;;;24.30;99.90;;;;;;5013026;28;20029;-83
2023/06/11 08:34:57;;;;;;;11.40;10.50;;;24.30;99.90;;;;;;5057842;28;20525;-83
2023/06/11 08:37:23;;;;;;;10.50;9.70;;;24.40;99.90;;;;;;5059706;28;20029;-82
2023/06/11 08:39:49;;;;;;;13.07;10.35;;;24.30;99.90;;;;;;5055978;28;20465;-84
2023/06/11 08:42:14;;;;;;;19.13;11.93;;;24.40;99.90;;;;;;5051172;28;20508;-82
2023/06/11 08:44:40;;;;;;;13.27;11.10;;;24.40;99.90;;;;;;5032278;28;20105;-82
2023/06/11 08:47:09;;;;;;;10.75;9.75;;;24.40;99.90;;;;;;5033016;28;20470;-82
2023/06/11 08:49:39;;;;;;;11.35;10.15;;;24.40;99.90;;;;;;5029475;28;20037;-83
2023/06/11 08:52:06;;;;;;;13.17;11.07;;;25.20;99.90;;;;;;5033898;28;20104;-82
2023/06/11 08:54:32;;;;;;;10.98;10.07;;;24.50;99.90;;;;;;5032879;28;20087;-82
2023/06/11 08:56:57;;;;;;;12.40;10.75;;;24.50;99.90;;;;;;5033507;28;20021;-83
2023/06/11 08:59:23;;;;;;;10.50;9.48;;;24.50;99.90;;;;;;5033903;28;20014;-83
2023/06/11 09:01:51;;;;;;;11.98;10.68;;;24.60;99.90;;;;;;5032501;28;20033;-84
2023/06/11 09:04:18;;;;;;;11.38;10.25;;;24.70;99.80;;;;;;5033286;28;20021;-83
2023/06/11 09:06:58;;;;;;;13.32;10.77;;;24.80;99.70;;;;;;5033178;28;20039;-82
2023/06/11 09:09:24;;;;;;;;;;;24.90;99.70;;;;;;5033676;28;20034;-84
2023/06/11 09:11:49;;;;;;;11.75;9.65;;;24.80;99.70;;;;;;5034275;28;20415;-84
2023/06/11 09:14:15;;;;;;;9.95;9.15;;;25.00;99.50;;;;;;5033652;28;20491;-85
2023/06/11 09:16:43;;;;;;;13.73;10.18;;;25.10;99.10;;;;;;5033484;28;20049;-85
2023/06/11 09:19:16;;;;;;;9.77;9.00;;;25.10;99.40;;;;;;5033297;28;20025;-84
2023/06/11 09:21:53;;;;;;;13.77;9.85;;;25.10;99.40;;;;;;5032528;28;20029;-84
2023/06/11 09:24:20;;;;;;;11.05;9.30;;;25.10;99.80;;;;;;5021993;28;20072;-84
2023/06/11 09:26:56;;;;;;;10.60;9.20;;;25.20;99.90;;;;;;5049870;23;20056;-86
2023/06/11 09:29:24;;;;;;;19.33;9.68;;;25.20;99.90;;;;;;5048476;28;20033;-87
2023/06/11 09:32:02;;;;;;;11.32;9.55;;;25.30;99.80;;;;;;5048682;28;20028;-88
2023/06/11 09:34:28;;;;;;;9.35;8.57;;;25.30;99.80;;;;;;5040742;28;20021;-87
2023/06/11 09:36:53;;;;;;;12.30;9.93;;;25.20;99.70;;;;;;5047210;28;20032;-88
2023/06/11 09:39:19;;;;;;;12.40;9.52;;;25.20;99.50;;;;;;5063075;28;20104;-87
2023/06/11 09:41:49;;;;;;;10.50;9.50;;;25.20;99.50;;;;;;5051256;28;20248;-88
2023/06/11 09:44:18;;;;;;;9.10;8.40;;;25.30;99.20;;;;;;5049221;28;20025;-88
2023/06/11 09:46:46;;;;;;;10.35;9.30;;;25.40;99.20;;;;;;5048882;28;20112;-87
2023/06/11 09:49:13;;;;;;;9.90;9.00;;;25.50;99.20;;;;;;5047586;28;20496;-88
2023/06/11 09:51:39;;;;;;;11.05;9.93;;;25.60;99.30;;;;;;5049334;28;20025;-87
2023/06/11 09:54:09;;;;;;;10.20;9.23;;;25.60;99.50;;;;;;5048188;28;20021;-87
2023/06/11 09:56:35;;;;;;;11.05;9.52;;;26.00;99.30;;;;;;5046743;28;20400;-87
2023/06/11 09:59:02;;;;;;;10.52;9.55;;;25.70;98.90;;;;;;5048608;28;20499;-88
2023/06/11 10:01:29;;;;;;;10.95;9.82;;;25.80;99.30;;;;;;5048850;28;20480;-88
2023/06/11 10:03:56;;;;;;;10.57;9.32;;;25.80;99.20;;;;;;5047786;28;20013;-87
2023/06/11 10:06:33;;;;;;;9.32;8.60;;;26.20;99.10;;;;;;5049053;28;20431;-87
2023/06/11 10:09:03;;;;;;;19.15;9.05;;;25.90;99.00;;;;;;5056456;28;20539;-88
2023/06/11 10:11:38;;;;;;;9.18;8.35;;;26.10;98.00;;;;;;5052066;28;20040;-88
2023/06/11 10:14:04;;;;;;;13.25;8.25;;;26.20;97.80;;;;;;5052639;28;20061;-88
2023/06/11 10:16:31;;;;;;;11.18;8.27;;;26.30;97.50;;;;;;5052951;28;20025;-88
2023/06/11 10:19:06;;;;;;;13.20;8.57;;;26.30;97.60;;;;;;5051857;28;20549;-87
2023/06/11 10:21:49;;;;;;;9.00;8.30;;;26.30;97.90;;;;;;5052461;28;20374;-87
2023/06/11 10:24:26;;;;;;;8.98;8.15;;;26.30;97.80;;;;;;5052624;28;20170;-87
2023/06/11 10:27:05;;;;;;;8.55;7.30;;;26.20;97.70;;;;;;5052375;28;20055;-88
2023/06/11 10:29:49;;;;;;;8.90;8.18;;;26.20;97.80;;;;;;5052580;28;20068;-88
2023/06/11 10:32:22;;;;;;;9.75;7.82;;;26.40;97.60;;;;;;5051711;28;20028;-87
2023/06/11 10:34:55;;;;;;;12.65;7.70;;;26.90;98.00;;;;;;5052713;28;20029;-88
2023/06/11 10:37:31;;;;;;;11.27;6.57;;;26.40;97.90;;;;;;5052514;28;20112;-88
2023/06/11 10:39:57;;;;;;;8.63;6.78;;;26.60;96.80;;;;;;5051593;28;20021;-88
2023/06/11 10:42:24;;;;;;;7.32;6.72;;;26.60;97.00;;;;;;5052545;28;20221;-88
2023/06/11 10:44:51;;;;;;;10.55;6.75;;;26.60;96.50;;;;;;5055306;28;20060;-87
2023/06/11 10:47:17;;;;;;;7.93;6.68;;;26.90;95.80;;;;;;5055855;28;20017;-88
2023/06/11 10:49:43;;;;;;;7.60;5.75;;;27.00;95.60;;;;;;5056104;28;20384;-87
2023/06/11 10:52:08;;;;;;;7.57;6.88;;;27.10;95.10;;;;;;5056476;28;20029;-87
2023/06/11 10:54:35;;;;;;;9.32;6.10;;;27.10;95.40;;;;;;5055776;28;20036;-87
2023/06/11 10:57:01;;;;;;;6.85;6.35;;;27.50;95.60;;;;;;5056192;28;20021;-88
2023/06/11 10:59:28;;;;;;;7.15;6.65;;;27.20;95.60;;;;;;5056019;28;20021;-87
2023/06/11 11:01:54;;;;;;;6.40;6.00;;;27.30;95.80;;;;;;5060108;28;20492;-86
2023/06/11 11:04:21;;;;;;;8.05;5.95;;;27.30;95.70;;;;;;5063725;28;20052;-87
2023/06/11 11:06:47;;;;;;;7.25;6.43;;;27.20;95.00;;;;;;5055316;28;20060;-88
2023/06/11 11:09:21;;;;;;;8.93;6.38;;;27.50;94.90;;;;;;5056116;28;20037;-88
2023/06/11 11:11:47;;;;;;;7.47;6.53;;;27.60;94.50;;;;;;5055569;28;20031;-88
2023/06/11 11:14:14;;;;;;;7.43;6.68;;;27.40;94.50;;;;;;5055638;28;20312;-88
2023/06/11 11:16:40;;;;;;;8.93;6.88;;;27.60;94.80;;;;;;5055890;28;20524;-87
2023/06/11 11:19:05;;;;;;;7.13;6.43;;;27.70;94.70;;;;;;5056422;28;20067;-88
2023/06/11 11:21:31;;;;;;;6.57;6.07;;;27.60;94.80;;;;;;5055143;28;20056;-87
2023/06/11 11:23:57;;;;;;;6.55;6.05;;;27.70;94.90;;;;;;5055293;28;20037;-88
2023/06/11 11:26:23;;;;;;;6.88;5.93;;;27.80;95.00;;;;;;5055338;28;20040;-87
2023/06/11 11:28:49;;;;;;;6.97;6.40;;;27.90;94.50;;;;;;5054754;28;20393;-88
2023/06/11 11:31:18;;;;;;;9.02;6.50;;;27.70;94.50;;;;;;5056599;28;20044;-87
2023/06/11 11:33:45;;;;;;;9.30;6.20;;;27.70;94.50;;;;;;5055496;28;20067;-87
2023/06/11 11:36:11;;;;;;;7.45;5.88;;;27.80;93.90;;;;;;5055073;28;20025;-88
2023/06/11 11:38:38;;;;;;;8.10;6.70;;;28.00;93.20;;;;;;5055284;28;20468;-88
2023/06/11 11:41:08;;;;;;;6.93;6.35;;;27.90;93.50;;;;;;5055177;28;20033;-88
2023/06/11 11:43:41;;;;;;;6.47;6.03;;;28.10;93.50;;;;;;5055023;28;20603;-87
2023/06/11 11:46:17;;;;;;;6.82;6.22;;;28.10;93.70;;;;;;5055669;28;20108;-87
2023/06/11 11:48:43;;;;;;;6.55;6.03;;;28.10;93.50;;;;;;5054813;28;20029;-87
2023/06/11 11:51:11;;;;;;;6.45;5.72;;;28.30;93.50;;;;;;5055108;28;20027;-87
2023/06/11 11:53:37;;;;;;;5.97;5.50;;;28.10;93.50;;;;;;5055512;28;20048;-87
2023/06/11 11:56:04;;;;;;;5.93;5.32;;;28.30;92.40;;;;;;5054373;28;20098;-88
2023/06/11 11:58:39;;;;;;;6.53;6.00;;;28.40;92.20;;;;;;5061622;28;20029;-87
2023/06/11 12:01:08;;;;;;;6.50;6.00;;;28.40;92.20;;;;;;5055156;28;20025;-87
2023/06/11 12:03:34;;;;;;;9.95;5.25;;;28.30;93.10;;;;;;5054245;28;20032;-88
2023/06/11 12:06:08;;;;;;;5.60;5.15;;;28.30;92.90;;;;;;5054680;28;20479;-87
2023/06/11 12:08:34;;;;;;;6.63;6.13;;;28.50;92.90;;;;;;5054931;28;20048;-88
2023/06/11 12:11:03;;;;;;;5.60;5.10;;;28.40;92.60;;;;;;5053894;28;20025;-87
2023/06/11 12:13:29;;;;;;;8.32;5.40;;;28.50;91.90;;;;;;5054906;28;20520;-88
2023/06/11 12:15:55;;;;;;;6.03;5.53;;;28.60;92.20;;;;;;5054608;28;20060;-87
2023/06/11 12:18:21;;;;;;;6.15;5.65;;;28.60;92.10;;;;;;5054053;28;20048;-87
2023/06/11 12:20:47;;;;;;;8.10;6.13;;;28.70;92.20;;;;;;5054608;28;20017;-87
2023/06/11 12:23:12;;;;;;;6.10;5.20;;;28.80;92.60;;;;;;5054696;28;20386;-88
2023/06/11 12:25:39;;;;;;;7.15;5.00;;;28.90;92.20;;;;;;5053405;28;20049;-87
2023/06/11 12:28:05;;;;;;;5.95;5.32;;;28.80;92.40;;;;;;5065119;28;20028;-87
2023/06/11 12:30:32;;;;;;;6.18;5.50;;;29.10;91.80;;;;;;5054316;28;20033;-87
2023/06/11 12:32:58;;;;;;;13.55;5.10;;;29.10;91.20;;;;;;5053097;28;20476;-88
2023/06/11 12:35:24;;;;;;;14.85;5.28;;;29.20;91.30;;;;;;5054345;28;20028;-87
2023/06/11 12:37:50;;;;;;;5.18;4.78;;;29.10;91.30;;;;;;5054045;28;20021;-87
2023/06/11 12:40:16;;;;;;;6.30;4.72;;;29.10;91.10;;;;;;5053726;28;20376;-87
2023/06/11 12:42:43;;;;;;;7.97;5.53;;;29.10;91.30;;;;;;5053902;28;20372;-87
2023/06/11 12:45:09;;;;;;;6.75;5.15;;;29.20;91.50;;;;;;5053612;28;20033;-87
2023/06/11 12:47:36;;;;;;;6.22;5.45;;;29.20;91.40;;;;;;5054332;28;20029;-87
2023/06/11 12:50:11;;;;;;;5.10;4.70;;;29.20;91.20;;;;;;5054065;28;20033;-86